Flight Track Log - Related Links

Times and Time Zones

All times are in EDT time to prevent confusion due to time zone crossing. See the BXR1966 flight status page for this flight to view local times or setup timezone preferences in your user account.

Time Position Orientation Groundspeed Altitude Reporting Facility
EDT Latitude Longitude Course Direction KTS MPH feet Rate Location/Type
Thu 09:06:47 AM 38.5667 -121.2833 339° North 106 122 400  Level Northern Cal TRACON
Thu 09:07:47 AM 38.6000 -121.3000 339° North 111 128 1,000 579 Climbing Northern Cal TRACON
Thu 09:08:41 AM 38.6167 -121.3167 322° Northwest 125 144 1,500 500 Climbing Northern Cal TRACON
Thu 09:09:47 AM 38.6500 -121.3500 322° Northwest 131 151 2,000 550 Climbing Northern Cal TRACON
Thu 09:10:41 AM 38.6667 -121.3833 303° West 149 171 2,600 579 Climbing Northern Cal TRACON
Thu 09:11:41 AM 38.7000 -121.4000 339° North 131 151 3,100 500 Climbing Northern Cal TRACON
Thu 09:12:29 AM 38.7333 -121.4167 339° North 139 160 3,500 556 Climbing Northern Cal TRACON
Thu 09:13:29 AM 38.7500 -121.4500 303° West 126 145 4,100 550 Climbing Northern Cal TRACON
Thu 09:14:29 AM 38.7833 -121.4833 322° Northwest 131 151 4,600 474 Climbing Northern Cal TRACON
Thu 09:15:23 AM 38.8000 -121.5167 303° West 131 151 5,000 474 Climbing Northern Cal TRACON
Thu 09:16:23 AM 38.8333 -121.5500 322° Northwest 135 155 5,500 500 Climbing Northern Cal TRACON
Thu 09:17:23 AM 38.8667 -121.5833 322° Northwest 136 157 6,000 500 Climbing Northern Cal TRACON
Thu 09:18:35 AM 38.9000 -121.6167 322° Northwest 141 162 6,600 474 Climbing Northern Cal TRACON
Thu 09:19:17 AM 38.9178 -121.6361 320° Northwest 139 160 6,900 466 Climbing Oakland Center
Thu 09:20:18 AM 38.9467 -121.6686 319° Northwest 139 160 7,400 496 Climbing Oakland Center
Thu 09:21:18 AM 38.9733 -121.7028 315° West 137 158 7,900 496 Climbing Oakland Center
Thu 09:22:19 AM 39.0033 -121.7353 320° Northwest 140 161 8,400 443 Climbing Oakland Center
Thu 09:23:20 AM 39.0350 -121.7658 323° Northwest 141 162 8,800 397 Climbing Oakland Center
Thu 09:24:20 AM 39.0650 -121.7992 319° Northwest 142 163 9,200 496 Climbing Oakland Center
Thu 09:25:21 AM 39.0922 -121.8331 316° Northwest 138 159 9,800 545 Climbing Oakland Center
Thu 09:26:21 AM 39.1203 -121.8683 316° Northwest 140 161 10,300 298 Climbing Oakland Center
Thu 09:27:22 AM 39.1472 -121.9103 310° West 149 171 10,400  Climbing Oakland Center
Thu 09:28:23 AM 39.1764 -121.9539 311° West 163 188 10,300 -49 Descending Oakland Center
Thu 09:29:24 AM 39.2108 -121.9967 316° Northwest 170 196 10,300 50 Level Oakland Center
Thu 09:30:24 AM 39.2433 -122.0397 314° West 168 193 10,400 50 Climbing Oakland Center
Thu 09:31:25 AM 39.2742 -122.0858 311° West 167 192 10,400  Level Oakland Center
Thu 09:32:26 AM 39.3064 -122.1292 314° West 169 194 10,400  Level Oakland Center
Thu 09:33:26 AM 39.3394 -122.1733 314° West 169 194 10,400  Level Oakland Center
Thu 09:34:27 AM 39.3711 -122.2167 313° West 169 194 10,400  Level Oakland Center
Thu 09:35:28 AM 39.4047 -122.2600 315° West 169 194 10,400  Level Oakland Center
Thu 09:36:29 AM 39.4433 -122.3106 315° West 166 191 10,400  Level Oakland Center
Thu 09:37:30 AM 39.4753 -122.3539 314° West 166 191 10,400  Level Oakland Center
Thu 09:38:30 AM 39.5067 -122.3942 315° West 167 192 10,400  Level Oakland Center
Thu 09:39:31 AM 39.5397 -122.4375 315° West 169 194 10,400  Level Oakland Center
Thu 09:40:32 AM 39.5736 -122.4789 317° Northwest 168 193 10,400  Level Oakland Center
Thu 09:41:33 AM 39.6061 -122.5236 313° West 170 196 10,400 49 Level Oakland Center
Thu 09:42:34 AM 39.6325 -122.5717 305° West 167 192 10,500 49 Climbing Oakland Center
Thu 09:43:35 AM 39.6664 -122.6158 315° West 172 198 10,500  Level Oakland Center
Thu 09:44:35 AM 39.6978 -122.6606 312° West 169 194 10,500  Level Oakland Center
Thu 09:45:36 AM 39.7303 -122.7044 314° West 169 194 10,500 -49 Level Oakland Center
Thu 09:46:37 AM 39.7647 -122.7481 316° Northwest 171 197 10,400  Descending Oakland Center
Thu 09:47:38 AM 39.7947 -122.7933 311° West 166 191 10,500 49 Climbing Oakland Center
Thu 09:48:39 AM 39.8256 -122.8386 312° West 167 192 10,500  Level Oakland Center
Thu 09:49:40 AM 39.8603 -122.8944 309° West 165 190 10,500  Level Oakland Center
Thu 09:50:41 AM 39.8908 -122.9406 311° West 167 192 10,500  Level Oakland Center
Thu 09:51:42 AM 39.9228 -122.9850 313° West 167 192 10,500  Level Oakland Center
Thu 09:52:43 AM 39.9506 -123.0314 308° West 164 189 10,500  Level Oakland Center
Thu 09:53:43 AM 39.9817 -123.0775 311° West 168 193 10,500  Level Oakland Center
Thu 09:54:44 AM 40.0131 -123.1236 312° West 172 198 10,500  Level Oakland Center
Thu 09:55:45 AM 40.0417 -123.1697 309° West 167 192 10,500  Level Oakland Center
Thu 09:56:46 AM 40.0706 -123.2164 309° West 166 191 10,500 98 Level Oakland Center
Thu 09:57:47 AM 40.1011 -123.2650 309° West 166 191 10,700 98 Climbing Oakland Center
Thu 09:58:48 AM 40.1311 -123.3114 310° West 168 193 10,700  Level Oakland Center
Thu 09:59:49 AM 40.1600 -123.3569 310° West 166 191 10,700 -49 Level Oakland Center
Thu 10:00:50 AM 40.1883 -123.4019 310° West 164 189 10,600 -49 Descending Oakland Center
Thu 10:01:51 AM 40.2156 -123.4450 310° West 160 184 10,600 -49 Level Oakland Center
Thu 10:02:52 AM 40.2442 -123.4886 311° West 157 181 10,500 -49 Descending Oakland Center
Thu 10:03:53 AM 40.2722 -123.5311 311° West 157 181 10,500 -492 Level Oakland Center
Thu 10:04:54 AM 40.3008 -123.5781 309° West 159 183 9,500 -836 Descending Oakland Center
Thu 10:05:55 AM 40.3328 -123.6331 307° West 173 199 8,800 -1,033 Descending Oakland Center
Thu 10:06:56 AM 40.3756 -123.6958 312° West 185 213 7,400 -1,328 Descending Oakland Center
Thu 10:07:57 AM 40.4100 -123.7522 309° West 192 221 6,100 -1,033 Descending Oakland Center
Thu 10:08:58 AM 40.4431 -123.8089 307° West 195 224 5,300 -585 Descending Oakland Center
Thu 10:10:00 AM 40.4711 -123.8614 305° West 188 216 4,900 -148 Descending Seattle Center
Thu 10:11:00 AM 40.4972 -123.9086 306° West 175 201 5,000 50 Climbing Seattle Center
Thu 10:12:01 AM 40.5236 -123.9522 309° West 163 188 5,000  Level Seattle Center
Thu 10:13:02 AM 40.5494 -123.9997 306° West 161 185 5,000  Level Seattle Center
Thu 10:14:03 AM 40.5733 -124.0486 303° West 160 184 5,000  Level Seattle Center
Thu 10:15:04 AM 40.5961 -124.0967 302° West 159 183 5,000  Level Seattle Center
Thu 10:16:05 AM 40.6253 -124.1550 303° West 159 183 5,000 -49 Level Seattle Center
Thu 10:17:06 AM 40.6486 -124.2047 302° West 160 184 4,900 -148 Descending Seattle Center
Thu 10:18:07 AM 40.6803 -124.2406 319° Northwest 161 185 4,700 -344 Descending Seattle Center
Thu 10:19:08 AM 40.7208 -124.2403 360° North 152 175 4,200 -492 Descending Seattle Center
Thu 10:20:09 AM 40.7603 -124.2428 357° North 146 168 3,700 -492 Descending Seattle Center

Login

Don't have an account? Register now (free) for customized features, flight alerts, and more!